createdAt,value
2023-03-28T00:01:40.696Z,9.35
2023-03-28T00:04:11.653Z,9.57
2023-03-28T00:06:41.715Z,9.55
2023-03-28T00:09:09.652Z,9.50
2023-03-28T00:11:38.366Z,9.43
2023-03-28T00:14:08.486Z,9.42
2023-03-28T00:16:39.451Z,9.33
2023-03-28T00:19:09.876Z,9.16
2023-03-28T00:21:41.500Z,9.18
2023-03-28T00:24:14.107Z,9.12
2023-03-28T00:26:43.495Z,9.02
2023-03-28T00:29:21.304Z,8.89
2023-03-28T00:31:50.856Z,8.74
2023-03-28T00:34:18.741Z,8.61
2023-03-28T00:36:46.989Z,8.54
2023-03-28T00:39:15.455Z,8.62
2023-03-28T00:41:45.162Z,8.67
2023-03-28T00:44:47.384Z,8.63
2023-03-28T00:47:36.850Z,8.45
2023-03-28T00:50:22.752Z,8.40
2023-03-28T00:53:01.914Z,8.25
2023-03-28T00:55:35.842Z,8.33
2023-03-28T00:58:08.742Z,8.32
2023-03-28T01:00:41.439Z,8.37
2023-03-28T01:03:13.732Z,8.27
2023-03-28T01:05:43.788Z,8.23
2023-03-28T01:08:21.223Z,8.22
2023-03-28T01:10:49.610Z,8.20
2023-03-28T01:13:20.635Z,8.20
2023-03-28T01:15:50.463Z,8.10
2023-03-28T01:18:24.036Z,8.10
2023-03-28T01:21:34.401Z,8.05
2023-03-28T01:24:26.487Z,8.15
2023-03-28T01:26:59.678Z,8.15
2023-03-28T01:29:30.532Z,8.13
2023-03-28T01:32:24.179Z,8.23
2023-03-28T01:35:26.737Z,7.96
2023-03-28T01:38:23.841Z,7.85
2023-03-28T01:40:57.291Z,7.70
2023-03-28T01:43:43.804Z,7.62
2023-03-28T01:46:19.616Z,7.67
2023-03-28T01:48:54.031Z,7.77
2023-03-28T01:51:37.745Z,7.84
2023-03-28T01:54:13.275Z,7.63
2023-03-28T01:56:59.601Z,7.69
2023-03-28T01:59:43.711Z,7.65
2023-03-28T02:02:39.548Z,7.59
2023-03-28T02:05:28.158Z,7.37
2023-03-28T02:08:16.742Z,7.42
2023-03-28T02:10:52.733Z,7.33
2023-03-28T02:14:17.440Z,7.30
2023-03-28T02:17:21.645Z,7.23
2023-03-28T02:20:15.193Z,7.03
2023-03-28T02:23:18.734Z,6.90
2023-03-28T02:26:02.579Z,6.97
2023-03-28T02:28:53.200Z,6.92
2023-03-28T02:31:51.464Z,6.90
2023-03-28T02:34:20.210Z,6.92
2023-03-28T02:37:03.887Z,6.98
2023-03-28T02:39:46.764Z,6.91
2023-03-28T02:42:52.776Z,7.05
2023-03-28T02:45:29.591Z,7.08
2023-03-28T02:47:57.744Z,6.99
2023-03-28T02:50:43.711Z,7.10
2023-03-28T02:53:33.029Z,7.04
2023-03-28T02:56:32.557Z,6.96
2023-03-28T02:59:31.618Z,7.01
2023-03-28T03:02:00.995Z,6.99
2023-03-28T03:04:28.686Z,7.09
2023-03-28T03:06:56.983Z,7.11
2023-03-28T03:09:27.540Z,7.10
2023-03-28T03:11:55.594Z,7.16
2023-03-28T03:14:23.704Z,7.16
2023-03-28T03:16:54.381Z,7.18
2023-03-28T03:19:21.981Z,7.16
2023-03-28T03:21:50.489Z,7.09
2023-03-28T03:24:18.669Z,7.14
2023-03-28T03:26:46.744Z,7.11
2023-03-28T03:29:17.827Z,7.16
2023-03-28T03:31:46.643Z,7.28
2023-03-28T03:34:33.998Z,7.07
2023-03-28T03:37:04.325Z,7.02
2023-03-28T03:39:31.984Z,6.90
2023-03-28T03:41:59.631Z,6.90
2023-03-28T03:44:27.713Z,6.83
2023-03-28T03:46:56.578Z,6.84
2023-03-28T03:49:24.833Z,6.85
2023-03-28T03:51:53.469Z,6.82
2023-03-28T03:54:21.632Z,6.91
2023-03-28T03:56:50.151Z,6.88
2023-03-28T03:59:18.827Z,6.76
2023-03-28T04:01:47.707Z,6.75
2023-03-28T04:04:28.352Z,6.63
2023-03-28T04:07:15.451Z,6.73
2023-03-28T04:09:44.106Z,6.83
2023-03-28T04:12:12.234Z,6.63
2023-03-28T04:14:47.941Z,6.66
2023-03-28T04:17:44.291Z,6.63
2023-03-28T04:20:19.655Z,6.48
2023-03-28T04:23:05.832Z,6.36
2023-03-28T04:25:34.979Z,6.33
2023-03-28T04:28:27.881Z,6.26
2023-03-28T04:31:00.272Z,6.22
2023-03-28T04:34:00.672Z,6.28
2023-03-28T04:36:29.903Z,6.34
2023-03-28T04:39:03.045Z,6.20
2023-03-28T04:41:55.749Z,6.19
2023-03-28T04:44:55.969Z,6.14
2023-03-28T04:47:24.045Z,6.28
2023-03-28T04:49:52.744Z,6.29
2023-03-28T04:52:22.193Z,6.23
2023-03-28T04:54:51.547Z,6.25
2023-03-28T04:57:23.156Z,6.26
2023-03-28T04:59:56.101Z,6.23
2023-03-28T05:02:55.176Z,6.35
2023-03-28T05:05:24.247Z,6.25
2023-03-28T05:07:52.387Z,6.21
2023-03-28T05:10:21.887Z,6.20
2023-03-28T05:12:51.469Z,6.43
2023-03-28T05:15:21.338Z,6.61
2023-03-28T05:18:03.223Z,6.69
2023-03-28T05:20:33.507Z,6.77
2023-03-28T05:23:02.188Z,6.96
2023-03-28T05:25:31.589Z,6.94
2023-03-28T05:27:59.968Z,6.92
2023-03-28T05:30:28.070Z,6.87
2023-03-28T05:32:58.673Z,6.94
2023-03-28T05:35:26.634Z,7.10
2023-03-28T05:37:54.854Z,7.27
2023-03-28T05:40:23.380Z,7.41
2023-03-28T05:42:51.551Z,7.57
2023-03-28T05:45:21.921Z,7.67
2023-03-28T05:48:00.276Z,7.73
2023-03-28T05:50:29.019Z,7.64
2023-03-28T05:53:07.068Z,7.51
2023-03-28T05:55:36.007Z,7.74
2023-03-28T05:58:06.387Z,8.04
2023-03-28T06:00:39.721Z,8.27
2023-03-28T06:03:08.426Z,8.52
2023-03-28T06:05:39.671Z,8.72
2023-03-28T06:08:19.438Z,8.72
2023-03-28T06:10:47.154Z,8.85
2023-03-28T06:13:20.730Z,9.00
2023-03-28T06:15:50.056Z,9.22
2023-03-28T06:18:20.363Z,9.39
2023-03-28T06:20:50.747Z,9.48
2023-03-28T06:23:18.710Z,9.69
2023-03-28T06:25:46.570Z,9.67
2023-03-28T06:28:16.823Z,9.58
2023-03-28T06:31:14.470Z,9.19
2023-03-28T06:33:43.738Z,8.58
2023-03-28T06:36:12.141Z,8.27
2023-03-28T06:38:39.999Z,8.22
2023-03-28T06:41:09.450Z,8.46
2023-03-28T06:43:37.897Z,8.77
2023-03-28T06:46:10.312Z,8.88
2023-03-28T06:48:43.976Z,9.17
2023-03-28T06:51:31.191Z,9.29
2023-03-28T06:53:59.241Z,9.56
2023-03-28T06:56:30.060Z,9.30
2023-03-28T06:58:59.415Z,9.62
2023-03-28T07:01:29.277Z,9.93
2023-03-28T07:04:05.004Z,10.36
2023-03-28T07:06:36.185Z,10.33
2023-03-28T07:09:06.437Z,10.30
2023-03-28T07:11:41.560Z,10.33
2023-03-28T07:14:09.565Z,9.79
2023-03-28T07:16:37.368Z,9.99
2023-03-28T07:19:05.462Z,10.00
2023-03-28T07:21:36.645Z,9.88
2023-03-28T07:24:06.164Z,10.13
2023-03-28T07:26:46.406Z,9.69
2023-03-28T07:29:14.393Z,9.61
2023-03-28T07:31:42.809Z,9.95
2023-03-28T07:34:11.307Z,9.99
2023-03-28T07:36:39.805Z,10.20
2023-03-28T07:39:16.009Z,10.36
2023-03-28T07:41:44.566Z,10.89
2023-03-28T07:44:13.220Z,11.44
2023-03-28T07:46:40.964Z,11.77
2023-03-28T07:49:08.615Z,11.85
2023-03-28T07:51:37.567Z,12.09
2023-03-28T07:54:05.689Z,12.35
2023-03-28T07:56:33.778Z,12.37
2023-03-28T07:59:18.417Z,12.59
2023-03-28T08:01:49.655Z,12.91
2023-03-28T08:04:19.569Z,13.12
2023-03-28T08:07:00.398Z,13.18
2023-03-28T08:09:28.621Z,13.17
2023-03-28T08:12:09.056Z,12.87
2023-03-28T08:14:36.643Z,13.26
2023-03-28T08:17:04.578Z,12.30
2023-03-28T08:19:32.694Z,13.20
2023-03-28T08:22:26.144Z,13.59
2023-03-28T08:25:12.612Z,13.39
2023-03-28T08:27:40.990Z,12.99
2023-03-28T08:30:12.834Z,12.81
2023-03-28T08:32:55.613Z,12.60
2023-03-28T08:35:24.276Z,13.24
2023-03-28T08:37:56.568Z,13.16
2023-03-28T08:40:27.373Z,13.01
2023-03-28T08:43:22.994Z,12.60
2023-03-28T08:45:57.890Z,13.07
2023-03-28T08:48:40.041Z,13.16
2023-03-28T08:51:35.461Z,13.46
2023-03-28T08:54:17.440Z,13.40
2023-03-28T08:56:52.401Z,14.44
2023-03-28T08:59:30.076Z,14.25
2023-03-28T09:01:58.182Z,14.19
2023-03-28T09:04:35.304Z,14.26
2023-03-28T09:07:40.765Z,14.54
2023-03-28T09:10:18.718Z,14.30
2023-03-28T09:13:32.275Z,14.76
2023-03-28T09:16:09.482Z,14.33
2023-03-28T09:18:55.005Z,14.83
2023-03-28T09:21:41.968Z,15.78
2023-03-28T09:24:38.246Z,15.37
2023-03-28T09:27:49.911Z,15.98
2023-03-28T09:30:25.325Z,16.67
2023-03-28T09:32:58.881Z,16.94
2023-03-28T09:35:31.560Z,18.61
2023-03-28T09:38:10.045Z,18.31
2023-03-28T09:40:42.711Z,18.82
2023-03-28T09:43:40.820Z,19.18
2023-03-28T09:46:40.044Z,20.21
2023-03-28T09:49:27.603Z,21.30
2023-03-28T09:52:15.967Z,19.60
2023-03-28T09:54:43.667Z,20.06
2023-03-28T09:57:11.991Z,21.20
2023-03-28T09:59:58.171Z,21.53
2023-03-28T10:02:33.911Z,22.10
2023-03-28T10:05:40.836Z,21.55
2023-03-28T10:08:34.936Z,21.19
2023-03-28T10:11:49.929Z,21.54
2023-03-28T10:14:44.628Z,21.55
2023-03-28T10:17:33.613Z,21.21
2023-03-28T10:20:21.887Z,21.66
2023-03-28T10:22:56.071Z,20.00
2023-03-28T10:25:40.234Z,20.89
2023-03-28T10:28:15.402Z,22.07
2023-03-28T10:30:44.599Z,22.00
2023-03-28T10:33:21.301Z,22.33
2023-03-28T10:36:29.068Z,22.74
2023-03-28T10:38:59.233Z,22.05
2023-03-28T10:41:55.342Z,20.86
2023-03-28T10:45:02.862Z,21.54
2023-03-28T10:47:35.198Z,22.96
2023-03-28T10:50:22.881Z,21.83
2023-03-28T10:53:10.862Z,22.98
2023-03-28T10:56:04.136Z,22.87
2023-03-28T10:59:12.911Z,21.83
2023-03-28T11:01:52.201Z,22.57
2023-03-28T11:04:54.852Z,24.06
2023-03-28T11:08:06.291Z,25.28
2023-03-28T11:11:07.452Z,25.25
2023-03-28T11:14:11.906Z,25.61
2023-03-28T11:17:01.552Z,24.40
2023-03-28T11:20:17.341Z,24.57
2023-03-28T11:23:05.717Z,24.59
2023-03-28T11:25:44.501Z,24.37
2023-03-28T11:28:39.754Z,23.99
2023-03-28T11:31:24.871Z,23.34
2023-03-28T11:34:24.658Z,23.50
2023-03-28T11:37:00.484Z,24.04
2023-03-28T11:39:53.830Z,25.20
2023-03-28T11:42:38.135Z,26.20
2023-03-28T11:45:42.518Z,24.60
2023-03-28T11:48:36.261Z,25.98
2023-03-28T11:51:26.192Z,26.86
2023-03-28T11:54:13.853Z,26.20
2023-03-28T11:57:11.803Z,27.53
2023-03-28T12:00:00.795Z,26.38
2023-03-28T12:02:42.787Z,24.25
2023-03-28T12:05:33.094Z,25.34
2023-03-28T12:08:09.283Z,27.13
2023-03-28T12:10:42.845Z,27.37
2023-03-28T12:13:23.067Z,28.38
2023-03-28T12:16:09.100Z,28.09
2023-03-28T12:19:17.653Z,28.72
2023-03-28T12:22:00.999Z,27.61
2023-03-28T12:24:49.709Z,27.02
2023-03-28T12:27:42.195Z,26.99
2023-03-28T12:30:35.807Z,27.54
2023-03-28T12:33:37.501Z,27.63
2023-03-28T12:36:17.812Z,27.19
2023-03-28T12:38:55.594Z,26.35
2023-03-28T12:41:34.601Z,27.78
2023-03-28T12:44:27.394Z,26.91
2023-03-28T12:47:14.259Z,25.78
2023-03-28T12:49:49.128Z,25.34
2023-03-28T12:52:25.879Z,25.28
2023-03-28T12:55:02.459Z,27.15
2023-03-28T12:57:42.712Z,26.85
2023-03-28T13:01:08.773Z,27.82
2023-03-28T13:04:03.224Z,28.29
2023-03-28T13:07:11.135Z,26.56
2023-03-28T13:09:57.514Z,25.22
2023-03-28T13:12:51.897Z,26.46
2023-03-28T13:15:19.477Z,27.20
2023-03-28T13:17:49.157Z,26.28
2023-03-28T13:20:17.578Z,26.35
2023-03-28T13:22:57.434Z,27.64
2023-03-28T13:25:28.134Z,29.67
2023-03-28T13:28:00.647Z,29.36
2023-03-28T13:30:31.465Z,30.91
2023-03-28T13:33:26.126Z,30.85
2023-03-28T13:36:00.330Z,32.13
2023-03-28T13:38:28.608Z,30.81
2023-03-28T13:41:01.287Z,30.94
2023-03-28T13:43:36.099Z,32.66
2023-03-28T13:46:11.931Z,31.54
2023-03-28T13:49:03.833Z,28.73
2023-03-28T13:51:40.854Z,30.05
2023-03-28T13:54:11.272Z,31.48
2023-03-28T13:56:43.505Z,32.94
2023-03-28T13:59:23.489Z,33.54
2023-03-28T14:02:02.460Z,32.02
2023-03-28T14:04:33.538Z,31.39
2023-03-28T14:07:02.538Z,30.81
2023-03-28T14:09:35.038Z,28.74
2023-03-28T14:12:06.985Z,28.26
2023-03-28T14:14:47.582Z,28.25
2023-03-28T14:17:19.007Z,30.43
2023-03-28T14:19:51.134Z,32.69
2023-03-28T14:22:21.937Z,33.07
2023-03-28T14:24:52.610Z,29.96
2023-03-28T14:27:49.810Z,31.25
2023-03-28T14:30:29.546Z,29.65
2023-03-28T14:33:14.888Z,27.84
2023-03-28T14:35:43.418Z,25.93
2023-03-28T14:38:27.702Z,28.42
2023-03-28T14:41:04.959Z,28.18
2023-03-28T14:43:33.456Z,31.84
2023-03-28T14:46:04.747Z,31.41
2023-03-28T14:48:34.610Z,26.30
2023-03-28T14:51:04.107Z,26.19
2023-03-28T14:53:40.612Z,27.35
2023-03-28T14:56:12.863Z,28.66
2023-03-28T14:58:44.609Z,29.29
2023-03-28T15:01:22.875Z,27.62
2023-03-28T15:03:56.772Z,27.71
2023-03-28T15:06:24.660Z,27.99
2023-03-28T15:08:54.567Z,27.10
2023-03-28T15:11:29.349Z,26.25
2023-03-28T15:14:28.253Z,24.90
2023-03-28T15:16:57.026Z,26.65
2023-03-28T15:19:34.973Z,28.52
2023-03-28T15:22:09.383Z,30.78
2023-03-28T15:24:39.279Z,27.69
2023-03-28T15:27:08.584Z,27.41
2023-03-28T15:29:38.743Z,27.37
2023-03-28T15:32:15.960Z,24.70
2023-03-28T15:34:54.538Z,27.80
2023-03-28T15:37:25.890Z,27.39
2023-03-28T15:39:56.228Z,27.88
2023-03-28T15:42:34.253Z,25.87
2023-03-28T15:45:03.031Z,25.78
2023-03-28T15:47:35.641Z,25.89
2023-03-28T15:50:12.649Z,25.61
2023-03-28T15:52:43.853Z,25.32
2023-03-28T15:55:21.241Z,23.76
2023-03-28T15:57:49.474Z,25.22
2023-03-28T16:00:38.342Z,22.99
2023-03-28T16:03:21.460Z,21.59
2023-03-28T16:05:51.666Z,20.16
2023-03-28T16:08:34.803Z,18.76
2023-03-28T16:11:05.900Z,18.59
2023-03-28T16:13:37.400Z,18.02
2023-03-28T16:16:29.412Z,18.08
2023-03-28T16:19:22.984Z,18.25
2023-03-28T16:21:51.278Z,17.94
2023-03-28T16:24:22.453Z,17.80
2023-03-28T16:26:50.148Z,17.66
2023-03-28T16:29:18.170Z,17.52
2023-03-28T16:31:47.176Z,17.40
2023-03-28T16:34:14.926Z,17.15
2023-03-28T16:36:42.574Z,17.25
2023-03-28T16:39:11.265Z,17.40
2023-03-28T16:41:39.422Z,17.07
2023-03-28T16:44:07.096Z,17.01
2023-03-28T16:46:35.227Z,16.83
2023-03-28T16:49:04.267Z,16.75
2023-03-28T16:51:32.339Z,16.84
2023-03-28T16:53:59.947Z,16.90
2023-03-28T16:56:30.225Z,16.75
2023-03-28T16:58:57.823Z,16.75
2023-03-28T17:01:25.643Z,16.73
2023-03-28T17:03:55.717Z,16.45
2023-03-28T17:06:24.419Z,16.52
2023-03-28T17:08:53.394Z,16.55
2023-03-28T17:11:23.424Z,16.32
2023-03-28T17:13:55.470Z,16.42
2023-03-28T17:16:23.800Z,16.33
2023-03-28T17:18:51.959Z,16.31
2023-03-28T17:21:20.240Z,16.09
2023-03-28T17:23:51.101Z,16.08
2023-03-28T17:26:19.490Z,16.21
2023-03-28T17:28:47.426Z,16.04
2023-03-28T17:31:18.689Z,16.09
2023-03-28T17:33:47.959Z,15.86
2023-03-28T17:36:19.681Z,15.81
2023-03-28T17:38:50.963Z,15.64
2023-03-28T17:41:19.754Z,15.49
2023-03-28T17:43:47.498Z,15.38
2023-03-28T17:46:17.208Z,15.18
2023-03-28T17:48:45.145Z,15.20
2023-03-28T17:51:13.910Z,15.09
2023-03-28T17:53:44.632Z,14.94
2023-03-28T17:56:13.444Z,14.92
2023-03-28T17:58:42.204Z,14.88
2023-03-28T18:01:12.657Z,14.77
2023-03-28T18:03:41.707Z,14.74
2023-03-28T18:06:17.602Z,14.65
2023-03-28T18:08:46.379Z,14.62
2023-03-28T18:11:17.778Z,14.70
2023-03-28T18:13:45.762Z,14.41
2023-03-28T18:16:18.148Z,14.43
2023-03-28T18:18:46.922Z,14.35
2023-03-28T18:21:15.266Z,14.35
2023-03-28T18:23:43.619Z,14.13
2023-03-28T18:26:12.203Z,14.03
2023-03-28T18:28:40.544Z,13.93
2023-03-28T18:31:14.568Z,13.82
2023-03-28T18:33:43.604Z,13.86
2023-03-28T18:36:13.102Z,13.82
2023-03-28T18:38:43.980Z,13.82
2023-03-28T18:41:12.835Z,13.86
2023-03-28T18:43:42.874Z,13.79
2023-03-28T18:46:16.139Z,13.78
2023-03-28T18:48:44.970Z,13.74
2023-03-28T18:51:13.983Z,13.76
2023-03-28T18:53:43.638Z,13.78
2023-03-28T18:56:13.832Z,13.79
2023-03-28T18:58:41.706Z,13.83
2023-03-28T19:01:11.641Z,13.77
2023-03-28T19:03:43.590Z,13.64
2023-03-28T19:06:13.659Z,13.56
2023-03-28T19:08:42.540Z,13.56
2023-03-28T19:11:14.674Z,13.44
2023-03-28T19:13:44.472Z,13.39
2023-03-28T19:16:15.760Z,13.36
2023-03-28T19:18:46.952Z,13.26
2023-03-28T19:21:16.929Z,13.32
2023-03-28T19:23:47.604Z,13.47
2023-03-28T19:26:17.252Z,13.42
2023-03-28T19:28:45.892Z,13.39
2023-03-28T19:31:14.499Z,13.18
2023-03-28T19:33:44.353Z,13.02
2023-03-28T19:36:13.649Z,13.03
2023-03-28T19:38:42.714Z,12.87
2023-03-28T19:41:27.059Z,12.78
2023-03-28T19:43:56.216Z,12.88
2023-03-28T19:46:35.238Z,12.71
2023-03-28T19:49:07.089Z,12.79
2023-03-28T19:51:35.572Z,12.63
2023-03-28T19:54:04.732Z,12.69
2023-03-28T19:56:32.602Z,12.58
2023-03-28T19:59:00.635Z,12.52
2023-03-28T20:01:28.544Z,12.45
2023-03-28T20:03:57.011Z,12.56
2023-03-28T20:06:25.769Z,12.50
2023-03-28T20:08:54.293Z,12.44
2023-03-28T20:11:22.592Z,12.42
2023-03-28T20:13:50.853Z,12.37
2023-03-28T20:16:19.619Z,12.43
2023-03-28T20:18:48.419Z,12.45
2023-03-28T20:21:16.115Z,12.35
2023-03-28T20:23:44.337Z,12.31
2023-03-28T20:26:20.478Z,12.29
2023-03-28T20:28:50.459Z,12.21
2023-03-28T20:31:19.679Z,12.26
2023-03-28T20:33:47.596Z,12.24
2023-03-28T20:36:15.174Z,12.22
2023-03-28T20:38:43.744Z,12.20
2023-03-28T20:41:13.573Z,12.11
2023-03-28T20:43:46.976Z,11.93
2023-03-28T20:46:19.227Z,11.95
2023-03-28T20:48:52.385Z,11.92
2023-03-28T20:51:23.085Z,11.64
2023-03-28T20:53:58.524Z,11.56
2023-03-28T20:56:27.815Z,11.53
2023-03-28T20:58:58.198Z,11.61
2023-03-28T21:01:29.907Z,11.58
2023-03-28T21:04:04.576Z,11.42
2023-03-28T21:06:36.647Z,11.52
2023-03-28T21:09:06.920Z,11.36
2023-03-28T21:11:36.892Z,11.35
2023-03-28T21:14:07.136Z,11.30
2023-03-28T21:16:37.356Z,11.27
2023-03-28T21:19:05.620Z,11.33
2023-03-28T21:21:34.349Z,11.28
2023-03-28T21:24:04.753Z,11.25
2023-03-28T21:26:33.413Z,11.25
2023-03-28T21:29:01.656Z,11.29
2023-03-28T21:31:29.962Z,11.36
2023-03-28T21:33:59.628Z,11.39
2023-03-28T21:36:27.980Z,11.43
2023-03-28T21:38:56.737Z,11.30
2023-03-28T21:41:27.431Z,11.06
2023-03-28T21:43:55.722Z,10.92
2023-03-28T21:46:23.459Z,10.85
2023-03-28T21:48:51.159Z,10.80
2023-03-28T21:51:19.078Z,10.69
2023-03-28T21:53:47.153Z,10.69
2023-03-28T21:56:16.422Z,10.67
2023-03-28T21:58:45.436Z,10.70
2023-03-28T22:01:14.993Z,10.78
2023-03-28T22:03:42.809Z,10.69
2023-03-28T22:06:11.576Z,10.73
2023-03-28T22:08:40.977Z,10.56
2023-03-28T22:11:18.735Z,10.55
2023-03-28T22:13:50.276Z,10.63
2023-03-28T22:16:18.966Z,10.65
2023-03-28T22:18:49.956Z,10.71
2023-03-28T22:21:17.978Z,10.58
2023-03-28T22:23:47.875Z,10.51
2023-03-28T22:26:16.803Z,10.58
2023-03-28T22:28:46.137Z,10.61
2023-03-28T22:31:14.046Z,10.50
2023-03-28T22:33:42.368Z,10.51
2023-03-28T22:36:10.896Z,10.40
2023-03-28T22:38:38.589Z,10.26
2023-03-28T22:41:07.817Z,10.31
2023-03-28T22:43:37.538Z,10.15
2023-03-28T22:46:06.189Z,10.11
2023-03-28T22:48:34.127Z,10.03
2023-03-28T22:51:02.349Z,10.04
2023-03-28T22:53:30.182Z,9.91
2023-03-28T22:55:58.869Z,10.09
2023-03-28T22:58:27.354Z,10.05
2023-03-28T23:00:56.115Z,10.03
2023-03-28T23:03:24.567Z,9.88
2023-03-28T23:05:55.135Z,9.99
2023-03-28T23:08:23.540Z,9.88
2023-03-28T23:10:51.751Z,9.94
2023-03-28T23:13:19.817Z,9.94
2023-03-28T23:15:47.347Z,9.96
2023-03-28T23:18:16.412Z,9.86
2023-03-28T23:20:49.795Z,9.96
2023-03-28T23:23:18.856Z,9.80
2023-03-28T23:25:47.455Z,9.94
2023-03-28T23:28:16.858Z,10.07
2023-03-28T23:30:46.639Z,10.03
2023-03-28T23:33:14.897Z,9.95
2023-03-28T23:35:43.466Z,9.81
2023-03-28T23:38:14.111Z,9.69
2023-03-28T23:40:41.677Z,9.64
2023-03-28T23:43:09.656Z,9.61
2023-03-28T23:45:37.943Z,9.69
2023-03-28T23:48:07.346Z,9.80
2023-03-28T23:50:35.475Z,9.90
2023-03-28T23:53:03.662Z,10.16
2023-03-28T23:55:32.365Z,10.40
2023-03-28T23:58:03.309Z,10.51
